Terminal Aerodrome Forecast
Issued by NWS

Home | Current Version | Previous Version | Text Only | Print | Product List | Glossary On
Versions: 1 2 3 4 5 6 7 8 9 10 11 12 13 14 15 16
000
FTUS46 KPDT 301700
TAFDLS
TAF
KDLS 301720Z 3018/0118 30018G30KT P6SM FEW050
     FM010300 29011KT P6SM FEW040
     FM011500 30008G15KT P6SM BKN250=

USA.gov is the U.S. government's official web portal to all federal, state and local government web resources and services.